Time;durP1;ratioP1;P1;durP2;ratioP2;P2;SDS_P1;SDS_P2;PMS_P1;PMS_P2;Temp;Humidity;BMP_temperature;BMP_pressure;BME280_temperature;BME280_humidity;BME280_pressure;Samples;Min_cycle;Max_cycle;Signal;HPM_P1;HPM_P2
2021/10/11 00:02:09;;;;;;;;;29.50;29.50;14.50;53.00;;;;;;4865071;29;8812;-65
2021/10/11 00:04:34;;;;;;;;;25.00;25.00;14.30;53.90;;;;;;4864971;29;8801;-65
2021/10/11 00:07:01;;;;;;;;;29.25;29.25;14.40;54.40;;;;;;4864951;29;8944;-64
2021/10/11 00:09:26;;;;;;;;;28.00;28.00;14.30;54.50;;;;;;4864767;29;8833;-65
2021/10/11 00:11:52;;;;;;;;;29.00;28.75;14.40;54.70;;;;;;4864737;29;8845;-65
2021/10/11 00:14:18;;;;;;;;;26.67;26.00;14.20;54.80;;;;;;4864868;29;8913;-66
2021/10/11 00:16:44;;;;;;;;;23.67;23.33;14.40;55.30;;;;;;4864836;29;8817;-65
2021/10/11 00:19:10;;;;;;;;;26.00;26.00;14.40;54.90;;;;;;4865052;29;8797;-65
2021/10/11 00:21:36;;;;;;;;;29.00;29.00;14.30;54.90;;;;;;4864764;29;8802;-65
2021/10/11 00:24:02;;;;;;;;;33.00;33.00;14.30;55.20;;;;;;4864772;29;8801;-65
2021/10/11 00:26:28;;;;;;;;;29.33;29.33;14.40;55.10;;;;;;4864642;29;8844;-65
2021/10/11 00:28:53;;;;;;;;;29.75;29.75;14.50;54.40;;;;;;4864547;29;8876;-65
2021/10/11 00:31:19;;;;;;;;;30.50;30.00;14.30;55.00;;;;;;4864783;29;8826;-65
2021/10/11 00:33:45;;;;;;;;;30.00;29.50;14.20;55.10;;;;;;4864577;29;8801;-65
2021/10/11 00:36:11;;;;;;;;;28.75;28.75;14.10;55.50;;;;;;4864511;29;8884;-65
2021/10/11 00:38:37;;;;;;;;;31.00;31.00;14.10;55.40;;;;;;4864547;29;8832;-65
2021/10/11 00:41:03;;;;;;;;;31.75;31.75;14.30;55.70;;;;;;4864661;29;8829;-66
2021/10/11 00:43:28;;;;;;;;;31.00;31.00;14.10;55.40;;;;;;4864629;29;8789;-65
2021/10/11 00:45:54;;;;;;;;;30.25;30.25;14.20;55.40;;;;;;4864422;29;8882;-65
2021/10/11 00:48:20;;;;;;;;;27.25;27.25;14.30;55.30;;;;;;4864372;29;8821;-66
2021/10/11 00:50:47;;;;;;;;;29.00;29.00;14.20;55.60;;;;;;4864492;29;9460;-65
2021/10/11 00:53:14;;;;;;;;;33.50;33.00;14.20;55.60;;;;;;4864543;29;8785;-65
2021/10/11 00:55:40;;;;;;;;;20.33;20.33;14.20;55.00;;;;;;4864379;29;8789;-65
2021/10/11 00:58:06;;;;;;;;;30.75;30.75;14.30;55.00;;;;;;4864278;29;8896;-65
2021/10/11 01:00:31;;;;;;;;;32.33;31.00;14.20;54.80;;;;;;4864053;29;9539;-65
2021/10/11 01:02:57;;;;;;;;;29.25;29.25;14.10;55.10;;;;;;4864045;29;8901;-66
2021/10/11 01:05:23;;;;;;;;;32.50;32.25;14.10;55.30;;;;;;4863913;29;8826;-66
2021/10/11 01:07:49;;;;;;;;;34.50;33.50;14.10;55.30;;;;;;4863883;29;8813;-65
2021/10/11 01:10:15;;;;;;;;;40.00;38.00;14.10;55.50;;;;;;4864018;29;8829;-65
2021/10/11 01:12:40;;;;;;;;;34.50;34.50;14.10;55.80;;;;;;4863916;29;8841;-65
2021/10/11 01:15:07;;;;;;;;;38.25;36.25;14.20;55.50;;;;;;4863894;29;9428;-64
2021/10/11 01:17:33;;;;;;;;;36.75;35.25;14.10;56.00;;;;;;4863821;29;9532;-65
2021/10/11 01:19:59;;;;;;;;;43.50;38.75;14.10;55.70;;;;;;4863974;29;8793;-65
2021/10/11 01:22:38;;;;;;;;;51.75;44.75;14.00;56.10;;;;;;4863651;29;8777;-65
2021/10/11 01:25:05;;;;;;;;;50.25;43.25;13.90;56.10;;;;;;4863863;29;8793;-65
2021/10/11 01:27:31;;;;;;;;;52.00;46.00;14.00;56.20;;;;;;4863733;29;8781;-65
2021/10/11 01:29:57;;;;;;;;;43.00;39.75;14.10;56.40;;;;;;4863583;29;8805;-65
2021/10/11 01:32:23;;;;;;;;;40.00;37.25;14.40;55.80;;;;;;4863457;29;8820;-65
2021/10/11 01:34:50;;;;;;;;;60.50;50.00;14.30;56.00;;;;;;4862701;29;8797;-65
2021/10/11 01:37:16;;;;;;;;;56.50;48.50;14.30;55.30;;;;;;4863384;29;8785;-66
2021/10/11 01:39:42;;;;;;;;;46.25;40.50;14.40;55.30;;;;;;4863559;29;8814;-66
2021/10/11 01:42:08;;;;;;;;;46.50;40.50;14.20;55.70;;;;;;4863541;29;8817;-65
2021/10/11 01:44:35;;;;;;;;;50.75;43.75;14.20;56.00;;;;;;4862311;29;8814;-65
2021/10/11 01:47:01;;;;;;;;;56.75;48.50;14.10;56.40;;;;;;4863274;29;8869;-65
2021/10/11 01:49:27;;;;;;;;;57.75;49.00;14.10;56.10;;;;;;4863151;29;8818;-65
2021/10/11 01:51:52;;;;;;;;;51.75;44.75;14.10;56.50;;;;;;4863357;29;8924;-65
2021/10/11 01:54:18;;;;;;;;;53.00;45.75;14.10;56.50;;;;;;4863349;29;8865;-65
2021/10/11 01:56:44;;;;;;;;;56.25;48.25;14.30;56.90;;;;;;4863058;29;8798;-65
2021/10/11 01:59:10;;;;;;;;;51.00;44.75;14.00;56.90;;;;;;4862984;29;8817;-66
2021/10/11 02:01:36;;;;;;;;;53.00;45.00;14.00;57.30;;;;;;4863092;29;8774;-65
2021/10/11 02:04:01;;;;;;;;;55.50;47.50;14.00;57.30;;;;;;4862910;29;8805;-65
2021/10/11 02:06:27;;;;;;;;;74.00;61.00;13.90;57.30;;;;;;4862961;29;8834;-65
2021/10/11 02:08:53;;;;;;;;;80.00;66.25;14.00;58.00;;;;;;4862654;29;8992;-65
2021/10/11 02:11:19;;;;;;;;;84.25;76.25;13.90;58.00;;;;;;4862234;29;8865;-66
2021/10/11 02:13:44;;;;;;;;;97.00;96.00;13.90;57.60;;;;;;4862860;29;8923;-65
2021/10/11 02:16:10;;;;;;;;;96.00;90.00;13.80;58.30;;;;;;4862678;29;8813;-65
2021/10/11 02:18:36;;;;;;;;;90.25;86.25;13.70;58.40;;;;;;4862938;29;8810;-65
2021/10/11 02:21:02;;;;;;;;;90.00;84.75;13.80;58.70;;;;;;4862843;29;8797;-65
2021/10/11 02:23:28;;;;;;;;;87.75;78.00;13.90;58.30;;;;;;4862612;29;8817;-65
2021/10/11 02:25:54;;;;;;;;;69.00;57.75;13.90;58.60;;;;;;4862593;29;8786;-65
2021/10/11 02:28:20;;;;;;;;;61.25;51.75;13.70;58.70;;;;;;4862480;29;8841;-65
2021/10/11 02:30:46;;;;;;;;;66.00;55.50;13.70;59.10;;;;;;4862477;29;8824;-65
2021/10/11 02:33:12;;;;;;;;;54.50;46.25;13.70;59.00;;;;;;4862432;29;8818;-65
2021/10/11 02:35:38;;;;;;;;;70.00;56.75;13.60;58.90;;;;;;4862391;29;8822;-65
2021/10/11 02:38:04;;;;;;;;;46.25;42.00;13.80;59.00;;;;;;4862373;29;8828;-65
2021/10/11 02:40:30;;;;;;;;;35.00;34.75;13.80;58.60;;;;;;4862309;29;8850;-65
2021/10/11 02:42:56;;;;;;;;;49.75;43.50;13.80;58.70;;;;;;4862369;29;8808;-65
2021/10/11 02:45:22;;;;;;;;;44.00;41.00;13.90;58.40;;;;;;4862517;29;8806;-65
2021/10/11 02:47:47;;;;;;;;;48.25;42.25;13.80;58.40;;;;;;4862168;29;8849;-65
2021/10/11 02:50:13;;;;;;;;;49.00;44.00;13.70;58.90;;;;;;4862404;29;8794;-65
2021/10/11 02:52:39;;;;;;;;;52.00;44.50;13.80;59.80;;;;;;4862398;29;8813;-65
2021/10/11 02:55:06;;;;;;;;;52.25;44.50;13.80;59.20;;;;;;4862370;29;8801;-65
2021/10/11 02:57:32;;;;;;;;;61.25;52.25;13.80;59.40;;;;;;4862419;29;8794;-65
2021/10/11 02:59:57;;;;;;;;;57.50;49.00;13.70;59.70;;;;;;4862248;29;8790;-65
2021/10/11 03:02:24;;;;;;;;;49.00;43.00;13.60;59.60;;;;;;4862201;29;8798;-64
2021/10/11 03:04:50;;;;;;;;;53.50;46.00;13.50;59.80;;;;;;4862023;29;8790;-66
2021/10/11 03:07:18;;;;;;;;;56.00;47.75;13.60;59.80;;;;;;4862266;29;8828;-65
2021/10/11 03:09:45;;;;;;;;;54.50;46.25;13.70;59.40;;;;;;4862036;29;8845;-65
2021/10/11 03:12:11;;;;;;;;;51.50;44.50;13.60;60.00;;;;;;4861835;29;8837;-65
2021/10/11 03:14:37;;;;;;;;;48.25;42.00;13.50;59.80;;;;;;4861950;29;8809;-65
2021/10/11 03:17:04;;;;;;;;;50.50;44.00;13.50;60.30;;;;;;4861933;29;8801;-65
2021/10/11 03:19:30;;;;;;;;;42.25;39.50;13.60;60.10;;;;;;4862164;29;8793;-65
2021/10/11 03:21:56;;;;;;;;;47.00;41.50;13.40;60.40;;;;;;4863207;29;8812;-64
2021/10/11 03:24:21;;;;;;;;;44.50;40.00;13.50;60.30;;;;;;4865081;29;9429;-65
2021/10/11 03:26:47;;;;;;;;;42.50;38.75;13.40;60.20;;;;;;4865949;29;8825;-64
2021/10/11 03:29:13;;;;;;;;;47.75;42.25;13.50;60.10;;;;;;4865537;29;9500;-64
2021/10/11 03:31:39;;;;;;;;;40.25;37.00;13.60;60.30;;;;;;4865614;29;8789;-65
2021/10/11 03:34:06;;;;;;;;;42.00;38.00;13.50;60.00;;;;;;4865614;29;8870;-65
2021/10/11 03:36:33;;;;;;;;;44.75;39.00;13.60;60.00;;;;;;4865588;29;8824;-65
2021/10/11 03:38:59;;;;;;;;;38.00;37.00;13.60;60.10;;;;;;4865757;29;8805;-65
2021/10/11 03:41:25;;;;;;;;;42.75;39.75;13.60;60.30;;;;;;4865835;29;8889;-64
2021/10/11 03:43:51;;;;;;;;;40.75;37.50;13.60;60.00;;;;;;4865695;29;8790;-64
2021/10/11 03:46:16;;;;;;;;;71.00;57.50;13.70;59.80;;;;;;4865681;29;8774;-65
2021/10/11 03:48:42;;;;;;;;;63.25;53.50;13.50;59.90;;;;;;4865482;29;8845;-65
2021/10/11 03:51:08;;;;;;;;;67.50;56.00;13.50;60.30;;;;;;4865215;29;8804;-65
2021/10/11 03:53:34;;;;;;;;;80.00;70.00;13.30;60.30;;;;;;4865240;29;8797;-66
2021/10/11 03:56:00;;;;;;;;;78.00;66.25;13.20;61.00;;;;;;4865550;29;8789;-64
2021/10/11 03:58:25;;;;;;;;;67.00;56.00;13.20;61.00;;;;;;4865429;29;8797;-65
2021/10/11 04:00:51;;;;;;;;;54.50;46.50;13.20;61.30;;;;;;4865133;29;9486;-65
2021/10/11 04:03:17;;;;;;;;;69.25;57.50;13.20;61.10;;;;;;4865267;29;8818;-65
2021/10/11 04:05:43;;;;;;;;;70.75;58.25;13.30;61.20;;;;;;4864979;29;8790;-66
2021/10/11 04:08:14;;;;;;;;;44.00;41.00;13.30;61.00;;;;;;4864762;29;8927;-64
2021/10/11 04:10:53;;;;;;;;;61.25;51.75;13.20;61.20;;;;;;4864932;29;8853;-64
2021/10/11 04:13:20;;;;;;;;;61.00;50.75;13.30;61.10;;;;;;4864945;29;8797;-63
2021/10/11 04:15:48;;;;;;;;;40.25;37.75;13.40;61.00;;;;;;4864885;29;8804;-63
2021/10/11 04:18:18;;;;;;;;;36.25;35.00;13.40;60.50;;;;;;4864869;29;8832;-64
2021/10/11 04:20:44;;;;;;;;;22.00;22.00;13.50;60.80;;;;;;4864740;29;8786;-64
2021/10/11 04:23:11;;;;;;;;;33.50;33.50;13.40;60.20;;;;;;4864739;29;8786;-64
2021/10/11 04:25:36;;;;;;;;;31.50;31.50;13.30;60.70;;;;;;4864952;29;9619;-64
2021/10/11 04:28:03;;;;;;;;;32.50;32.50;13.40;60.60;;;;;;4864617;29;8861;-64
2021/10/11 04:30:29;;;;;;;;;36.00;35.00;13.20;60.80;;;;;;4864696;29;8785;-64
2021/10/11 04:32:55;;;;;;;;;35.75;35.25;13.40;60.90;;;;;;4864080;29;8785;-64
2021/10/11 04:35:25;;;;;;;;;39.75;38.00;13.50;60.60;;;;;;4864555;29;8797;-64
2021/10/11 04:37:51;;;;;;;;;38.25;36.00;13.50;60.20;;;;;;4864763;29;9549;-64
2021/10/11 04:40:18;;;;;;;;;36.75;35.75;13.50;60.10;;;;;;4864709;29;8830;-64
2021/10/11 04:42:44;;;;;;;;;36.75;34.50;13.40;60.10;;;;;;4864300;29;8785;-64
2021/10/11 04:45:11;;;;;;;;;35.50;35.00;13.50;60.20;;;;;;4864341;29;8785;-65
2021/10/11 04:47:37;;;;;;;;;37.75;36.75;13.50;59.80;;;;;;4864279;29;8781;-65
2021/10/11 04:50:03;;;;;;;;;37.50;36.50;13.50;60.10;;;;;;4864237;29;8797;-64
2021/10/11 04:52:29;;;;;;;;;33.75;33.50;13.60;60.00;;;;;;4864438;29;9551;-65
2021/10/11 04:54:55;;;;;;;;;46.00;40.75;13.50;59.80;;;;;;4864098;29;8786;-64
2021/10/11 04:57:21;;;;;;;;;39.00;37.25;13.50;60.10;;;;;;4864175;29;8802;-65
2021/10/11 04:59:47;;;;;;;;;39.75;38.00;13.60;59.70;;;;;;4863856;29;8797;-64
2021/10/11 05:02:13;;;;;;;;;42.25;38.50;13.90;59.50;;;;;;4863929;29;8824;-64
2021/10/11 05:04:39;;;;;;;;;46.00;40.50;13.70;59.60;;;;;;4864176;29;8794;-65
2021/10/11 05:07:05;;;;;;;;;39.50;37.00;13.90;59.50;;;;;;4863427;29;8781;-67
2021/10/11 05:09:30;;;;;;;;;42.50;39.00;13.90;59.00;;;;;;4863134;29;8861;-67
2021/10/11 05:11:57;;;;;;;;;51.75;45.00;13.70;59.30;;;;;;4862641;29;8834;-66
2021/10/11 05:14:23;;;;;;;;;47.25;41.25;13.80;59.20;;;;;;4863228;29;9421;-65
2021/10/11 05:16:49;;;;;;;;;49.75;43.75;13.80;59.40;;;;;;4863071;29;8881;-64
2021/10/11 05:19:15;;;;;;;;;55.00;46.00;13.70;59.30;;;;;;4863338;29;8786;-65
2021/10/11 05:21:41;;;;;;;;;54.75;46.00;13.70;59.30;;;;;;4862959;29;8786;-65
2021/10/11 05:24:06;;;;;;;;;53.75;46.75;13.70;59.20;;;;;;4862846;29;9432;-65
2021/10/11 05:26:32;;;;;;;;;50.75;45.00;13.70;59.30;;;;;;4862900;29;8796;-65
2021/10/11 05:28:58;;;;;;;;;46.75;41.00;13.70;59.40;;;;;;4862678;29;8912;-64
2021/10/11 05:31:25;;;;;;;;;50.00;44.25;13.80;58.90;;;;;;4862709;29;8801;-65
2021/10/11 05:33:51;;;;;;;;;51.50;44.25;13.80;58.80;;;;;;4862938;29;8781;-65
2021/10/11 05:36:17;;;;;;;;;40.75;37.25;13.70;58.90;;;;;;4863524;29;8841;-65
2021/10/11 05:38:43;;;;;;;;;43.50;39.75;13.70;59.00;;;;;;4863514;29;8806;-65
2021/10/11 05:41:09;;;;;;;;;52.50;44.50;13.70;58.90;;;;;;4863689;29;8837;-65
2021/10/11 05:43:35;;;;;;;;;49.75;43.00;13.60;58.80;;;;;;4863356;29;8816;-65
2021/10/11 05:46:01;;;;;;;;;49.50;43.25;13.70;58.70;;;;;;4862565;29;8801;-65
2021/10/11 05:48:27;;;;;;;;;48.25;42.25;13.70;58.90;;;;;;4863119;29;9004;-65
2021/10/11 05:50:52;;;;;;;;;56.50;48.50;13.70;58.90;;;;;;4863512;29;8889;-65
2021/10/11 05:53:18;;;;;;;;;75.50;61.50;13.80;59.20;;;;;;4863057;29;9475;-65
2021/10/11 05:55:44;;;;;;;;;73.75;59.50;13.70;59.60;;;;;;4863071;29;9002;-65
2021/10/11 05:58:10;;;;;;;;;58.00;49.50;13.70;59.40;;;;;;4863062;29;8816;-65
2021/10/11 06:00:35;;;;;;;;;45.75;41.75;13.80;59.50;;;;;;4863035;29;8790;-65
2021/10/11 06:03:01;;;;;;;;;51.75;44.75;13.90;59.50;;;;;;4862945;29;8817;-65
2021/10/11 06:05:27;;;;;;;;;57.00;48.50;13.90;58.90;;;;;;4862911;29;8825;-65
2021/10/11 06:07:53;;;;;;;;;47.50;41.50;13.80;59.20;;;;;;4862881;29;8893;-66
2021/10/11 06:10:18;;;;;;;;;47.25;42.25;13.90;59.00;;;;;;4862806;29;8835;-66
2021/10/11 06:12:44;;;;;;;;;51.75;45.75;14.10;58.60;;;;;;4862804;29;8813;-67
2021/10/11 06:15:10;;;;;;;;;51.00;44.00;14.00;58.70;;;;;;4863010;29;8900;-66
2021/10/11 06:17:36;;;;;;;;;47.50;41.25;13.70;59.40;;;;;;4862968;29;9527;-66
2021/10/11 06:20:02;;;;;;;;;54.75;47.75;13.60;59.80;;;;;;4862572;29;8828;-66
2021/10/11 06:22:28;;;;;;;;;50.50;43.00;13.70;59.60;;;;;;4862558;29;8809;-66
2021/10/11 06:24:54;;;;;;;;;45.75;41.25;13.90;59.30;;;;;;4862855;29;8928;-66
2021/10/11 06:27:20;;;;;;;;;42.50;38.00;13.80;59.40;;;;;;4862625;29;8805;-66
2021/10/11 06:29:46;;;;;;;;;49.25;44.00;13.70;59.40;;;;;;4862468;29;8901;-67
2021/10/11 06:32:12;;;;;;;;;42.50;39.00;14.00;59.40;;;;;;4862514;29;8797;-67
2021/10/11 06:34:39;;;;;;;;;47.00;43.00;14.00;59.00;;;;;;4862563;29;8843;-67
2021/10/11 06:37:04;;;;;;;;;34.75;34.00;14.00;60.10;;;;;;4862422;29;8892;-67
2021/10/11 06:39:30;;;;;;;;;47.75;42.00;14.10;58.70;;;;;;4862183;29;8939;-66
2021/10/11 06:41:56;;;;;;;;;42.25;39.25;14.20;59.20;;;;;;4862459;29;8808;-66
2021/10/11 06:44:22;;;;;;;;;46.00;40.75;14.10;59.00;;;;;;4862261;29;8789;-66
2021/10/11 06:46:49;;;;;;;;;40.00;37.00;14.00;59.30;;;;;;4862292;29;8817;-66
2021/10/11 06:49:15;;;;;;;;;44.00;40.25;14.10;59.30;;;;;;4862071;29;8844;-66
2021/10/11 06:51:41;;;;;;;;;44.75;39.75;13.90;59.70;;;;;;4862202;29;8794;-67
2021/10/11 06:54:06;;;;;;;;;51.75;44.50;13.90;60.00;;;;;;4862422;29;8821;-68
2021/10/11 06:56:32;;;;;;;;;53.25;45.75;13.90;60.10;;;;;;4861992;29;8908;-68
2021/10/11 06:58:58;;;;;;;;;51.25;44.25;14.10;60.30;;;;;;4862153;29;8810;-71
2021/10/11 07:01:24;;;;;;;;;44.50;40.50;13.80;60.10;;;;;;4862141;29;8782;-67
2021/10/11 07:03:50;;;;;;;;;52.25;44.75;13.70;60.50;;;;;;4862357;29;8802;-67
2021/10/11 07:06:19;;;;;;;;;50.75;44.75;13.80;59.80;;;;;;4862222;29;8798;-67
2021/10/11 07:08:44;;;;;;;;;54.75;47.00;14.10;60.00;;;;;;4862205;29;8885;-67
2021/10/11 07:11:10;;;;;;;;;50.00;43.25;14.00;59.70;;;;;;4862039;29;9502;-68
2021/10/11 07:13:36;;;;;;;;;43.50;39.00;14.00;60.20;;;;;;4861973;29;8900;-67
2021/10/11 07:16:03;;;;;;;;;53.50;46.75;14.00;59.90;;;;;;4861942;29;8877;-67
2021/10/11 07:18:33;;;;;;;;;55.00;48.00;14.00;59.90;;;;;;4861853;29;8813;-68
2021/10/11 07:21:03;;;;;;;;;56.00;47.75;14.00;60.00;;;;;;4862117;29;8805;-67
2021/10/11 07:23:29;;;;;;;;;52.50;44.75;14.20;60.30;;;;;;4861916;29;8797;-67
2021/10/11 07:25:56;;;;;;;;;45.00;40.00;14.50;60.30;;;;;;4860871;29;8809;-68
2021/10/11 07:28:23;;;;;;;;;45.25;40.25;14.50;59.40;;;;;;4862067;29;8833;-68
2021/10/11 07:30:48;;;;;;;;;55.50;47.50;14.50;59.20;;;;;;4861828;29;8840;-67
2021/10/11 07:33:14;;;;;;;;;54.25;46.25;14.60;58.90;;;;;;4861848;29;8805;-67
2021/10/11 07:35:40;;;;;;;;;50.50;43.25;14.40;58.60;;;;;;4861761;29;8847;-68
2021/10/11 07:38:06;;;;;;;;;50.75;43.75;14.60;59.00;;;;;;4861735;29;8825;-68
2021/10/11 07:40:32;;;;;;;;;51.75;44.00;14.60;59.00;;;;;;4862064;29;8836;-69
2021/10/11 07:42:58;;;;;;;;;41.00;38.00;14.80;59.00;;;;;;4861609;29;8880;-68
2021/10/11 07:45:24;;;;;;;;;47.75;42.75;14.70;58.70;;;;;;4861650;29;8786;-65
2021/10/11 07:47:50;;;;;;;;;51.25;45.25;14.60;59.00;;;;;;4861654;29;9456;-66
2021/10/11 07:50:16;;;;;;;;;45.00;40.50;14.70;58.90;;;;;;4861597;29;8893;-72
2021/10/11 07:52:41;;;;;;;;;55.75;47.75;14.80;58.40;;;;;;4861543;29;8814;-69
2021/10/11 07:55:07;;;;;;;;;50.75;44.75;14.60;59.00;;;;;;4861976;29;8786;-72
2021/10/11 07:57:33;;;;;;;;;40.50;37.50;14.60;59.20;;;;;;4861866;29;8892;-68
2021/10/11 08:00:07;;;;;;;;;51.25;44.25;14.80;59.60;;;;;;4861549;29;8989;-72
2021/10/11 08:02:33;;;;;;;;;51.50;44.50;14.70;59.20;;;;;;4861761;29;8859;-73
2021/10/11 08:04:59;;;;;;;;;54.50;46.00;14.90;59.30;;;;;;4861755;29;8819;-72
2021/10/11 08:07:25;;;;;;;;;61.25;51.00;14.90;59.40;;;;;;4861772;29;8801;-71
2021/10/11 08:09:51;;;;;;;;;82.25;72.75;15.10;59.00;;;;;;4864648;29;9461;-71
2021/10/11 08:12:16;;;;;;;;;64.00;53.25;15.10;59.20;;;;;;4863634;29;8841;-72
2021/10/11 08:14:44;;;;;;;;;77.25;65.00;15.10;58.70;;;;;;4864871;29;8845;-72
2021/10/11 08:17:11;;;;;;;;;88.50;78.00;14.90;59.10;;;;;;4864777;29;8889;-72
2021/10/11 08:19:37;;;;;;;;;76.00;62.00;15.10;59.20;;;;;;4864780;29;8915;-72
2021/10/11 08:22:03;;;;;;;;;66.50;54.75;15.00;58.70;;;;;;4864759;29;8904;-75
2021/10/11 08:24:30;;;;;;;;;66.75;56.25;15.00;58.80;;;;;;4864689;29;8810;-74
2021/10/11 08:26:56;;;;;;;;;72.75;59.50;15.10;59.20;;;;;;4864564;29;8828;-73
2021/10/11 08:29:21;;;;;;;;;62.00;52.00;15.30;58.90;;;;;;4864781;29;8833;-72
2021/10/11 08:31:47;;;;;;;;;68.00;55.00;15.30;58.70;;;;;;4864522;29;9671;-73
2021/10/11 08:34:13;;;;;;;;;66.00;54.50;15.20;59.20;;;;;;4864508;29;8794;-72
2021/10/11 08:36:39;;;;;;;;;60.00;50.50;15.40;58.60;;;;;;4864537;29;8782;-72
2021/10/11 08:39:05;;;;;;;;;60.00;50.50;15.40;58.50;;;;;;4864418;29;8805;-71
2021/10/11 08:41:31;;;;;;;;;60.75;50.75;15.30;58.40;;;;;;4864668;29;8951;-71
2021/10/11 08:43:57;;;;;;;;;56.25;48.00;15.30;58.40;;;;;;4864390;29;8801;-72
2021/10/11 08:46:25;;;;;;;;;63.50;52.25;15.40;58.80;;;;;;4864240;29;8786;-73
2021/10/11 08:48:51;;;;;;;;;61.00;51.25;15.50;58.10;;;;;;4864524;29;8841;-71
2021/10/11 08:51:17;;;;;;;;;62.25;52.50;15.40;58.40;;;;;;4864226;29;8836;-70
2021/10/11 08:53:43;;;;;;;;;59.50;50.75;15.40;58.20;;;;;;4864391;29;8801;-72
2021/10/11 08:56:13;;;;;;;;;55.25;47.25;15.40;58.80;;;;;;4864141;29;9026;-72
2021/10/11 08:58:49;;;;;;;;;51.00;44.50;15.50;58.20;;;;;;4864010;29;8825;-71
2021/10/11 09:01:19;;;;;;;;;49.50;43.00;15.40;58.10;;;;;;4864173;29;8786;-71
2021/10/11 09:03:45;;;;;;;;;57.00;49.00;15.50;58.10;;;;;;4864378;29;8900;-73
2021/10/11 09:06:12;;;;;;;;;56.25;48.25;15.50;57.90;;;;;;4864355;29;8802;-73
2021/10/11 09:08:42;;;;;;;;;50.50;44.25;15.50;58.10;;;;;;4864273;29;8844;-74
2021/10/11 09:11:11;;;;;;;;;62.75;51.75;15.30;58.60;;;;;;4863974;29;8873;-72
2021/10/11 09:13:41;;;;;;;;;58.00;49.00;15.40;58.50;;;;;;4864218;29;8832;-67
2021/10/11 09:16:09;;;;;;;;;64.50;53.00;15.50;58.10;;;;;;4863989;29;8885;-72
2021/10/11 09:18:36;;;;;;;;;60.25;50.25;15.50;58.60;;;;;;4863582;29;8801;-73
2021/10/11 09:21:02;;;;;;;;;52.75;45.00;15.70;58.10;;;;;;4863700;29;9513;-75
2021/10/11 09:23:32;;;;;;;;;60.75;51.00;15.50;58.10;;;;;;4863866;29;8821;-73
2021/10/11 09:26:00;;;;;;;;;61.25;50.25;15.60;57.80;;;;;;4863609;29;8817;-72
2021/10/11 09:28:27;;;;;;;;;64.25;52.50;15.40;59.10;;;;;;4863544;29;8905;-72
2021/10/11 09:30:54;;;;;;;;;59.75;50.00;15.50;58.10;;;;;;4863476;29;8803;-71
2021/10/11 09:33:25;;;;;;;;;58.00;48.00;15.60;58.20;;;;;;4863415;29;9544;-72
2021/10/11 09:35:52;;;;;;;;;58.00;48.50;15.50;58.10;;;;;;4863751;29;8801;-72
2021/10/11 09:38:21;;;;;;;;;50.50;43.75;15.40;58.20;;;;;;4863438;29;8885;-68
2021/10/11 09:40:48;;;;;;;;;60.75;50.50;15.70;58.20;;;;;;4863533;29;8829;-70
2021/10/11 09:43:16;;;;;;;;;53.25;45.25;15.80;57.70;;;;;;4863605;29;8798;-68
2021/10/11 09:45:43;;;;;;;;;65.50;54.75;15.80;58.00;;;;;;4863260;29;8863;-69
2021/10/11 09:48:10;;;;;;;;;67.75;57.00;15.90;57.70;;;;;;4863159;29;8868;-70
2021/10/11 09:50:37;;;;;;;;;60.25;50.25;16.00;57.20;;;;;;4863168;29;8813;-70
2021/10/11 09:53:04;;;;;;;;;54.00;45.75;16.00;57.40;;;;;;4863078;29;8916;-69
2021/10/11 09:55:32;;;;;;;;;54.00;46.00;16.00;56.60;;;;;;4863183;29;8785;-70
2021/10/11 09:58:01;;;;;;;;;57.50;48.50;16.00;57.00;;;;;;4863185;29;9466;-71
2021/10/11 10:00:27;;;;;;;;;46.25;41.00;15.90;57.60;;;;;;4863236;29;8805;-69
2021/10/11 10:02:54;;;;;;;;;53.00;46.00;15.90;57.70;;;;;;4863017;29;8822;-70
2021/10/11 10:05:34;;;;;;;;;46.00;40.50;16.00;57.40;;;;;;4862793;29;8805;-66
2021/10/11 10:08:04;;;;;;;;;58.75;50.50;16.10;57.30;;;;;;4862914;29;8835;-70
2021/10/11 10:10:31;;;;;;;;;52.75;45.75;15.90;57.30;;;;;;4862684;29;8825;-69
2021/10/11 10:12:57;;;;;;;;;57.50;48.50;16.00;57.50;;;;;;4862758;29;8828;-69
2021/10/11 10:15:36;;;;;;;;;55.75;47.50;16.00;57.30;;;;;;4862637;29;8797;-69
2021/10/11 10:18:06;;;;;;;;;64.00;52.00;15.90;57.30;;;;;;4862802;29;8805;-68
2021/10/11 10:20:32;;;;;;;;;70.75;57.50;15.90;57.40;;;;;;4862685;29;8781;-68
2021/10/11 10:22:59;;;;;;;;;68.25;56.25;16.00;57.50;;;;;;4862832;29;8818;-69
2021/10/11 10:25:26;;;;;;;;;57.00;48.00;16.00;57.30;;;;;;4861628;29;8801;-67
2021/10/11 10:27:54;;;;;;;;;67.25;56.00;15.70;57.10;;;;;;4862524;29;8873;-71
2021/10/11 10:30:25;;;;;;;;;72.25;58.75;15.80;57.90;;;;;;4862065;29;8852;-71
2021/10/11 10:32:59;;;;;;;;;69.50;57.50;15.80;58.80;;;;;;4862597;29;8782;-70
2021/10/11 10:35:27;;;;;;;;;71.50;59.00;15.80;57.80;;;;;;4862567;29;8813;-71
2021/10/11 10:37:54;;;;;;;;;66.50;54.50;15.80;57.50;;;;;;4862444;29;9508;-72
2021/10/11 10:40:23;;;;;;;;;64.25;53.50;15.80;57.90;;;;;;4862153;29;8825;-70
2021/10/11 10:42:49;;;;;;;;;64.50;54.00;15.70;58.30;;;;;;4862470;29;8877;-71
2021/10/11 10:45:22;;;;;;;;;62.00;52.00;15.70;58.00;;;;;;4862322;29;8865;-73
2021/10/11 10:47:50;;;;;;;;;65.00;54.50;15.80;57.90;;;;;;4862369;29;8832;-71
2021/10/11 10:50:21;;;;;;;;;62.50;52.00;15.90;57.90;;;;;;4862817;29;8793;-70
2021/10/11 10:52:49;;;;;;;;;63.25;54.00;16.00;57.60;;;;;;4862721;29;8797;-73
2021/10/11 10:55:15;;;;;;;;;60.00;50.75;16.10;57.70;;;;;;4862342;29;8882;-70
2021/10/11 11:01:03;;;;;;;;;56.00;47.25;16.00;57.00;;;;;;4862308;29;8864;-69
2021/10/11 11:03:29;;;;;;;;;60.00;49.50;16.00;57.10;;;;;;4862451;29;9567;-69
2021/10/11 11:05:55;;;;;;;;;59.00;50.00;16.00;57.40;;;;;;4862223;29;8885;-69
2021/10/11 11:08:26;;;;;;;;;67.00;56.00;16.10;57.40;;;;;;4862025;29;8833;-69
2021/10/11 11:10:52;;;;;;;;;67.50;54.75;16.00;57.30;;;;;;4861844;29;8869;-70
2021/10/11 11:13:18;;;;;;;;;54.00;46.00;16.10;58.60;;;;;;4861928;29;8824;-69
2021/10/11 11:15:52;;;;;;;;;60.25;50.75;16.10;57.50;;;;;;4862066;29;8798;-70
2021/10/11 11:18:22;;;;;;;;;58.50;48.00;16.10;57.60;;;;;;4861795;29;8840;-70
2021/10/11 11:20:50;;;;;;;;;57.00;49.00;15.80;58.50;;;;;;4862111;29;8814;-69
2021/10/11 11:23:25;;;;;;;;;49.25;42.50;15.60;58.20;;;;;;4861455;29;8806;-70
2021/10/11 11:25:57;;;;;;;;;49.50;42.00;15.30;58.10;;;;;;4861643;29;8872;-68
2021/10/11 11:28:27;;;;;;;;;52.00;45.00;15.30;57.60;;;;;;4861631;29;8825;-70
2021/10/11 11:31:00;;;;;;;;;54.25;46.25;15.20;57.90;;;;;;4862060;29;9523;-71
2021/10/11 11:33:29;;;;;;;;;47.75;40.50;15.20;58.30;;;;;;4861677;29;8801;-72
2021/10/11 11:35:57;;;;;;;;;38.00;35.25;15.30;58.00;;;;;;4861680;29;8981;-67
2021/10/11 11:38:25;;;;;;;;;42.00;38.00;15.10;57.90;;;;;;4861621;29;8798;-67
2021/10/11 11:41:01;;;;;;;;;45.50;41.25;15.30;58.80;;;;;;4861950;29;9718;-67
2021/10/11 11:43:33;;;;;;;;;45.00;40.25;15.50;57.50;;;;;;4863896;29;9440;-67
2021/10/11 11:46:00;;;;;;;;;44.25;40.25;15.60;57.70;;;;;;4865347;29;8813;-67
2021/10/11 11:48:32;;;;;;;;;51.25;43.50;15.80;57.30;;;;;;4865424;29;9502;-68
2021/10/11 11:50:59;;;;;;;;;54.00;45.50;15.80;56.90;;;;;;4865254;29;8794;-69
2021/10/11 11:53:26;;;;;;;;;49.50;43.50;16.00;56.70;;;;;;4865496;29;9171;-69
2021/10/11 11:55:56;;;;;;;;;53.75;45.75;16.00;56.70;;;;;;4865140;29;8794;-68
2021/10/11 11:58:27;;;;;;;;;53.00;45.75;15.90;57.10;;;;;;4865193;29;8797;-70
2021/10/11 12:01:04;;;;;;;;;56.75;48.75;16.00;56.20;;;;;;4865400;29;8781;-70
2021/10/11 12:03:35;;;;;;;;;53.50;46.00;16.10;56.40;;;;;;4865148;29;8789;-70
2021/10/11 12:06:02;;;;;;;;;62.00;52.00;16.10;56.80;;;;;;4864994;29;8869;-69
2021/10/11 12:08:28;;;;;;;;;61.00;49.00;16.20;56.50;;;;;;4864879;29;8825;-69
2021/10/11 12:11:04;;;;;;;;;71.25;57.00;16.20;56.40;;;;;;4864909;29;8943;-67
2021/10/11 12:13:33;;;;;;;;;67.25;55.00;16.30;56.60;;;;;;4864932;29;8773;-68
2021/10/11 12:16:07;;;;;;;;;63.25;52.75;16.30;56.70;;;;;;4864768;29;8948;-69
2021/10/11 12:18:45;;;;;;;;;62.75;52.25;16.30;56.70;;;;;;4865052;29;8828;-69
2021/10/11 12:21:19;;;;;;;;;60.00;49.50;16.20;57.20;;;;;;4865285;29;8881;-70
2021/10/11 12:23:46;;;;;;;;;60.00;50.00;16.30;56.60;;;;;;4864727;29;8848;-69
2021/10/11 12:26:12;;;;;;;;;63.75;53.00;16.20;56.90;;;;;;4864506;29;8822;-69
2021/10/11 12:28:49;;;;;;;;;66.00;54.50;16.20;56.80;;;;;;4864496;29;8849;-69
2021/10/11 12:31:24;;;;;;;;;58.50;50.00;16.20;56.80;;;;;;4864701;29;8802;-69
2021/10/11 12:33:51;;;;;;;;;60.75;50.00;16.20;56.50;;;;;;4864528;29;8876;-69
2021/10/11 12:36:17;;;;;;;;;47.50;41.00;16.20;56.80;;;;;;4864344;29;8828;-69
2021/10/11 12:38:43;;;;;;;;;59.00;50.00;16.10;56.80;;;;;;4864404;29;8819;-71